createdAt,value
2023-01-28T00:00:07.319Z,99754.72
2023-01-28T00:02:35.997Z,99812.53
2023-01-28T00:05:05.136Z,99810.78
2023-01-28T00:07:34.145Z,99805.69
2023-01-28T00:10:02.155Z,99793.75
2023-01-28T00:12:32.844Z,99745.53
2023-01-28T00:15:01.249Z,99742.59
2023-01-28T00:17:29.569Z,99762.44
2023-01-28T00:19:58.917Z,99826.38
2023-01-28T00:22:27.162Z,99787.16
2023-01-28T00:24:55.334Z,99770.06
2023-01-28T00:27:23.418Z,99816.69
2023-01-28T00:29:51.632Z,99817.50
2023-01-28T00:32:20.103Z,99798.03
2023-01-28T00:34:50.215Z,99763.03
2023-01-28T00:37:18.314Z,99791.91
2023-01-28T00:39:47.051Z,99790.13
2023-01-28T00:42:14.932Z,99799.88
2023-01-28T00:44:43.306Z,99786.75
2023-01-28T00:47:11.445Z,99790.97
2023-01-28T00:49:39.331Z,99784.06
2023-01-28T00:52:07.442Z,99790.06
2023-01-28T00:54:36.969Z,99793.59
2023-01-28T00:57:05.048Z,99755.72
2023-01-28T00:59:33.335Z,99783.16
2023-01-28T01:02:13.033Z,99676.78
2023-01-28T01:04:41.874Z,99748.63
2023-01-28T01:07:09.826Z,99740.06
2023-01-28T01:09:37.805Z,99786.63
2023-01-28T01:12:09.268Z,99791.06
2023-01-28T01:14:37.579Z,99791.91
2023-01-28T01:17:05.412Z,99786.16
2023-01-28T01:19:33.833Z,99729.31
2023-01-28T01:22:02.284Z,99759.94
2023-01-28T01:24:34.173Z,99733.56
2023-01-28T01:27:02.604Z,99755.53
2023-01-28T01:29:30.690Z,99793.59
2023-01-28T01:31:58.637Z,99738.50
2023-01-28T01:34:26.810Z,99727.34
2023-01-28T01:36:54.679Z,99789.72
2023-01-28T01:39:22.590Z,99765.81
2023-01-28T01:41:50.949Z,99722.53
2023-01-28T01:45:04.537Z,99781.53
2023-01-28T01:47:35.859Z,99792.09
2023-01-28T01:50:24.773Z,99734.38
2023-01-28T01:52:59.835Z,99793.81
2023-01-28T01:55:32.171Z,99775.78
2023-01-28T01:58:07.093Z,99723.44
2023-01-28T02:00:35.069Z,99792.16
2023-01-28T02:03:03.916Z,99793.81
2023-01-28T02:05:32.493Z,99776.78
2023-01-28T02:08:21.093Z,99754.03
2023-01-28T02:11:05.761Z,99780.94
2023-01-28T02:13:48.525Z,99731.84
2023-01-28T02:16:17.172Z,99717.28
2023-01-28T02:18:46.004Z,99762.94
2023-01-28T02:22:15.647Z,99771.63
2023-01-28T02:25:25.764Z,99776.25
2023-01-28T02:28:18.319Z,99777.19
2023-01-28T02:31:12.873Z,99762.50
2023-01-28T02:33:45.687Z,99722.44
2023-01-28T02:36:33.833Z,99714.69
2023-01-28T02:39:10.996Z,99759.28
2023-01-28T02:41:55.732Z,99759.56
2023-01-28T02:44:24.976Z,99765.19
2023-01-28T02:47:12.819Z,99720.44
2023-01-28T02:49:50.789Z,99770.78
2023-01-28T02:53:15.119Z,99763.81
2023-01-28T02:56:04.981Z,99770.72
2023-01-28T02:58:51.837Z,99762.81
2023-01-28T03:01:43.826Z,99720.44
2023-01-28T03:04:22.225Z,99753.63
2023-01-28T03:06:58.588Z,99757.88
2023-01-28T03:09:27.438Z,99724.16
2023-01-28T03:12:26.560Z,99756.31
2023-01-28T03:15:23.084Z,99766.59
2023-01-28T03:18:25.305Z,99763.50
2023-01-28T03:21:26.378Z,99766.88
2023-01-28T03:24:48.901Z,99748.78
2023-01-28T03:27:50.947Z,99765.72
2023-01-28T03:31:02.135Z,99714.75
2023-01-28T03:34:02.480Z,99702.19
2023-01-28T03:36:50.708Z,99749.28
2023-01-28T03:39:38.746Z,99762.56
2023-01-28T03:42:14.850Z,99766.88
2023-01-28T03:45:04.226Z,99691.09
2023-01-28T03:47:34.371Z,99779.66
2023-01-28T03:50:06.809Z,99758.34
2023-01-28T03:52:46.575Z,99759.88
2023-01-28T03:55:29.019Z,99768.31
2023-01-28T03:57:57.282Z,99762.38
2023-01-28T04:00:25.271Z,99751.22
2023-01-28T04:02:54.655Z,99762.31
2023-01-28T04:05:22.995Z,99747.81
2023-01-28T04:07:55.728Z,99706.28
2023-01-28T04:11:15.918Z,99705.56
2023-01-28T04:13:48.776Z,99725.84
2023-01-28T04:16:20.738Z,99762.94
2023-01-28T04:18:49.135Z,99765.81
2023-01-28T04:21:17.856Z,99763.91
2023-01-28T04:23:55.815Z,99765.00
2023-01-28T04:26:24.153Z,99765.31
2023-01-28T04:28:52.004Z,99770.84
2023-01-28T04:31:20.853Z,99767.00
2023-01-28T04:34:20.931Z,99756.56
2023-01-28T04:37:16.068Z,99706.13
2023-01-28T04:39:43.933Z,99732.75
2023-01-28T04:42:22.114Z,99713.94
2023-01-28T04:45:04.838Z,99765.00
2023-01-28T04:47:52.760Z,99720.81
2023-01-28T04:50:44.739Z,99713.06
2023-01-28T04:53:35.667Z,99780.19
2023-01-28T04:56:08.698Z,99782.88
2023-01-28T04:58:37.821Z,99707.03
2023-01-28T05:01:10.352Z,99791.81
2023-01-28T05:03:38.663Z,99769.03
2023-01-28T05:06:08.253Z,99747.91
2023-01-28T05:08:47.488Z,99793.66
2023-01-28T05:11:16.975Z,99773.38
2023-01-28T05:13:46.669Z,99806.72
2023-01-28T05:16:15.606Z,99765.00
2023-01-28T05:18:44.918Z,99809.81
2023-01-28T05:21:16.961Z,99759.50
2023-01-28T05:23:45.193Z,99824.84
2023-01-28T05:26:13.472Z,99776.50
2023-01-28T05:28:41.715Z,99778.84
2023-01-28T05:31:11.021Z,99826.19
2023-01-28T05:33:39.478Z,99829.47
2023-01-28T05:36:10.499Z,99734.44
2023-01-28T05:38:39.616Z,99833.09
2023-01-28T05:41:07.591Z,99801.72
2023-01-28T05:43:37.550Z,99841.88
2023-01-28T05:46:16.692Z,99842.88
2023-01-28T05:49:08.503Z,99816.06
2023-01-28T05:52:11.671Z,99861.38
2023-01-28T05:54:40.321Z,99841.81
2023-01-28T05:57:08.475Z,99876.00
2023-01-28T05:59:37.104Z,99884.56
2023-01-28T06:02:06.910Z,99820.66
2023-01-28T06:04:34.982Z,99871.00
2023-01-28T06:07:03.636Z,99828.38
2023-01-28T06:09:33.387Z,99881.88
2023-01-28T06:12:01.831Z,99885.44
2023-01-28T06:14:32.920Z,99887.03
2023-01-28T06:17:18.681Z,99895.03
2023-01-28T06:20:03.982Z,99836.47
2023-01-28T06:22:33.733Z,99887.50
2023-01-28T06:25:02.056Z,99896.78
2023-01-28T06:27:30.194Z,99901.03
2023-01-28T06:29:58.272Z,99904.44
2023-01-28T06:32:27.398Z,99841.75
2023-01-28T06:34:55.707Z,99906.13
2023-01-28T06:37:26.253Z,99909.53
2023-01-28T06:39:55.029Z,99889.47
2023-01-28T06:42:23.243Z,99913.09
2023-01-28T06:44:51.421Z,99890.25
2023-01-28T06:47:19.820Z,99908.22
2023-01-28T06:49:47.980Z,99868.84
2023-01-28T06:52:16.248Z,99884.00
2023-01-28T06:54:44.951Z,99929.97
2023-01-28T06:57:13.104Z,99884.09
2023-01-28T06:59:41.571Z,99933.28
2023-01-28T07:02:12.286Z,99931.72
2023-01-28T07:04:40.306Z,99935.25
2023-01-28T07:07:08.508Z,99821.34
2023-01-28T07:09:36.954Z,99944.19
2023-01-28T07:12:06.240Z,99940.69
2023-01-28T07:14:34.981Z,99948.34
2023-01-28T07:17:03.945Z,99938.16
2023-01-28T07:19:32.805Z,99948.44
2023-01-28T07:22:03.194Z,99949.06
2023-01-28T07:24:31.715Z,99960.19
2023-01-28T07:27:00.188Z,99969.63
2023-01-28T07:29:28.240Z,99965.81
2023-01-28T07:31:56.607Z,99971.06
2023-01-28T07:34:25.080Z,99970.28
2023-01-28T07:36:53.391Z,99914.38
2023-01-28T07:39:21.747Z,99968.03
2023-01-28T07:41:49.894Z,99950.84
2023-01-28T07:44:34.847Z,99939.25
2023-01-28T07:47:04.585Z,99979.78
2023-01-28T07:49:34.843Z,99973.91
2023-01-28T07:52:03.105Z,99976.44
2023-01-28T07:54:31.230Z,99979.78
2023-01-28T07:56:59.515Z,99869.53
2023-01-28T07:59:27.974Z,99991.88
2023-01-28T08:01:57.016Z,99934.94
2023-01-28T08:04:25.908Z,99956.91
2023-01-28T08:06:54.677Z,99993.56
2023-01-28T08:09:23.535Z,99991.53
2023-01-28T08:11:51.937Z,99997.34
2023-01-28T08:14:20.440Z,99998.31
2023-01-28T08:16:48.498Z,99937.06
2023-01-28T08:19:18.540Z,100002.28
2023-01-28T08:21:48.958Z,100008.09
2023-01-28T08:24:17.965Z,99991.19
2023-01-28T08:26:49.157Z,99960.69
2023-01-28T08:29:17.288Z,100007.66
2023-01-28T08:31:45.458Z,99997.28
2023-01-28T08:34:13.490Z,100011.34
2023-01-28T08:36:41.713Z,100008.66
2023-01-28T08:39:10.091Z,99944.56
2023-01-28T08:41:40.131Z,100004.13
2023-01-28T08:44:09.246Z,100003.13
2023-01-28T08:46:38.300Z,99992.66
2023-01-28T08:49:07.625Z,100002.72
2023-01-28T08:51:35.909Z,100000.28
2023-01-28T08:54:05.491Z,100003.38
2023-01-28T08:56:33.631Z,99956.94
2023-01-28T08:59:01.940Z,99996.69
2023-01-28T09:01:30.307Z,100012.09
2023-01-28T09:03:58.400Z,100002.25
2023-01-28T09:06:26.619Z,99954.06
2023-01-28T09:08:58.633Z,99977.66
2023-01-28T09:11:28.412Z,99948.91
2023-01-28T09:13:58.784Z,99945.41
2023-01-28T09:16:27.792Z,99999.88
2023-01-28T09:18:56.348Z,99949.38
2023-01-28T09:21:24.445Z,100003.53
2023-01-28T09:23:52.491Z,100006.00
2023-01-28T09:26:21.969Z,99989.13
2023-01-28T09:28:50.478Z,99998.03
2023-01-28T09:31:18.968Z,99981.69
2023-01-28T09:33:49.287Z,100002.06
2023-01-28T09:36:17.617Z,99997.88
2023-01-28T09:38:45.684Z,99994.78
2023-01-28T09:41:56.555Z,99989.00
2023-01-28T09:44:59.218Z,99997.19
2023-01-28T09:47:43.357Z,99988.72
2023-01-28T09:50:39.643Z,99931.78
2023-01-28T09:53:24.619Z,99994.50
2023-01-28T09:56:17.226Z,99948.25
2023-01-28T09:58:45.431Z,99965.84
2023-01-28T10:01:47.298Z,99999.94
2023-01-28T10:04:52.207Z,99973.28
2023-01-28T10:07:37.401Z,99989.41
2023-01-28T10:10:11.561Z,100000.06
2023-01-28T10:13:28.397Z,99996.66
2023-01-28T10:16:14.743Z,99942.09
2023-01-28T10:19:05.310Z,99936.88
2023-01-28T10:22:14.498Z,99992.94
2023-01-28T10:24:52.961Z,100004.31
2023-01-28T10:27:24.368Z,100000.81
2023-01-28T10:29:54.337Z,99944.31
2023-01-28T10:32:35.401Z,99992.91
2023-01-28T10:35:04.824Z,99989.97
2023-01-28T10:37:37.433Z,99954.31
2023-01-28T10:40:12.918Z,99973.94
2023-01-28T10:42:41.630Z,99990.97
2023-01-28T10:45:26.065Z,99978.66
2023-01-28T10:48:23.613Z,99993.72
2023-01-28T10:51:02.125Z,99982.91
2023-01-28T10:53:43.052Z,99960.75
2023-01-28T10:56:32.030Z,99985.53
2023-01-28T10:59:29.780Z,99982.91
2023-01-28T11:02:05.418Z,99993.16
2023-01-28T11:04:37.378Z,99973.00
2023-01-28T11:07:18.871Z,99984.69
2023-01-28T11:09:51.903Z,99990.84
2023-01-28T11:12:24.458Z,99961.31
2023-01-28T11:14:57.658Z,99926.25
2023-01-28T11:17:30.381Z,99983.34
2023-01-28T11:20:10.520Z,99950.66
2023-01-28T11:22:43.296Z,99927.03
2023-01-28T11:25:32.155Z,99983.47
2023-01-28T11:28:06.911Z,99982.47
2023-01-28T11:30:42.192Z,99982.00
2023-01-28T11:33:44.057Z,99984.53
2023-01-28T11:36:35.786Z,99983.03
2023-01-28T11:39:28.961Z,99968.41
2023-01-28T11:42:19.381Z,99967.84
2023-01-28T11:44:49.606Z,99945.28
2023-01-28T11:47:37.814Z,99919.75
2023-01-28T11:50:30.064Z,99968.91
2023-01-28T11:53:52.692Z,99907.97
2023-01-28T11:57:17.379Z,99967.63
2023-01-28T12:00:25.299Z,99973.72
2023-01-28T12:03:00.172Z,99965.81
2023-01-28T12:06:06.643Z,99943.44
2023-01-28T12:09:09.789Z,99911.13
2023-01-28T12:12:15.265Z,99973.28
2023-01-28T12:15:09.035Z,99965.78
2023-01-28T12:18:20.274Z,99906.97
2023-01-28T12:20:55.633Z,99970.78
2023-01-28T12:23:30.114Z,99972.44
2023-01-28T12:26:40.197Z,99914.25
2023-01-28T12:30:10.483Z,99949.31
2023-01-28T12:33:06.270Z,99968.81
2023-01-28T12:36:17.993Z,99965.97
2023-01-28T12:39:20.372Z,99966.13
2023-01-28T12:41:57.896Z,99967.28
2023-01-28T12:44:38.955Z,99973.38
2023-01-28T12:47:13.721Z,99986.00
2023-01-28T12:50:10.407Z,99972.13
2023-01-28T12:53:15.748Z,99914.91
2023-01-28T12:55:49.327Z,99976.84
2023-01-28T12:58:33.867Z,99960.53
2023-01-28T13:01:11.383Z,99965.84
2023-01-28T13:03:57.969Z,99971.16
2023-01-28T13:06:38.740Z,99971.88
2023-01-28T13:09:27.680Z,99976.25
2023-01-28T13:11:59.795Z,99954.94
2023-01-28T13:14:33.576Z,99930.13
2023-01-28T13:17:27.595Z,99931.63
2023-01-28T13:19:56.657Z,99989.41
2023-01-28T13:22:37.654Z,99987.97
2023-01-28T13:25:28.566Z,99995.69
2023-01-28T13:28:07.337Z,100006.13
2023-01-28T13:30:51.167Z,99887.09
2023-01-28T13:33:41.957Z,99977.19
2023-01-28T13:36:19.516Z,99992.50
2023-01-28T13:38:48.591Z,99945.00
2023-01-28T13:41:16.574Z,100006.38
2023-01-28T13:43:45.124Z,100005.34
2023-01-28T13:46:28.670Z,99940.13
2023-01-28T13:48:59.895Z,100002.19
2023-01-28T13:51:34.271Z,100010.03
2023-01-28T13:54:20.939Z,100011.69
2023-01-28T13:57:02.960Z,99936.38
2023-01-28T13:59:49.977Z,99949.03
2023-01-28T14:02:41.742Z,100003.22
2023-01-28T14:05:26.938Z,100006.88
2023-01-28T14:08:49.408Z,100008.72
2023-01-28T14:11:54.765Z,100023.59
2023-01-28T14:14:55.952Z,100007.66
2023-01-28T14:17:55.529Z,99998.06
2023-01-28T14:20:30.763Z,100001.56
2023-01-28T14:23:22.527Z,100011.06
2023-01-28T14:26:09.673Z,100012.34
2023-01-28T14:29:00.334Z,100010.78
2023-01-28T14:31:37.276Z,100010.69
2023-01-28T14:34:35.361Z,99987.63
2023-01-28T14:37:14.676Z,99979.03
2023-01-28T14:39:54.198Z,99952.72
2023-01-28T14:42:32.158Z,100019.13
2023-01-28T14:45:23.192Z,100013.19
2023-01-28T14:48:22.508Z,100013.94
2023-01-28T14:51:08.842Z,100005.91
2023-01-28T14:53:54.519Z,100016.50
2023-01-28T14:57:02.430Z,100018.44
2023-01-28T14:59:37.774Z,100025.34
2023-01-28T15:02:31.951Z,100019.34
2023-01-28T15:05:16.068Z,99959.00
2023-01-28T15:07:47.445Z,99966.50
2023-01-28T15:10:26.276Z,100025.28
2023-01-28T15:13:09.464Z,100014.72
2023-01-28T15:15:41.087Z,100019.25
2023-01-28T15:18:31.476Z,100021.81
2023-01-28T15:21:00.866Z,100019.25
2023-01-28T15:23:38.915Z,100024.41
2023-01-28T15:26:26.023Z,99993.94
2023-01-28T15:28:56.535Z,100033.06
2023-01-28T15:31:34.822Z,99979.63
2023-01-28T15:34:16.951Z,100036.59
2023-01-28T15:36:45.536Z,99988.28
2023-01-28T15:39:20.838Z,99983.19
2023-01-28T15:41:55.428Z,100037.41
2023-01-28T15:44:39.132Z,100042.63
2023-01-28T15:47:38.381Z,100047.22
2023-01-28T15:50:09.673Z,100049.78
2023-01-28T15:52:42.595Z,100042.19
2023-01-28T15:55:33.079Z,100049.88
2023-01-28T15:58:19.896Z,99987.69
2023-01-28T16:00:49.920Z,99990.38
2023-01-28T16:03:22.271Z,100004.91
2023-01-28T16:06:07.897Z,100051.59
2023-01-28T16:09:03.889Z,100055.00
2023-01-28T16:11:45.027Z,100051.03
2023-01-28T16:14:26.923Z,100055.91
2023-01-28T16:16:56.870Z,100006.66
2023-01-28T16:19:41.865Z,100049.97
2023-01-28T16:22:39.699Z,100054.69
2023-01-28T16:25:41.762Z,100053.91
2023-01-28T16:28:20.931Z,100054.84
2023-01-28T16:30:49.319Z,100027.00
2023-01-28T16:33:22.813Z,100066.78
2023-01-28T16:36:06.580Z,100000.47
2023-01-28T16:38:35.984Z,100069.84
2023-01-28T16:41:04.857Z,100069.91
2023-01-28T16:46:09.234Z,100048.38
2023-01-28T16:48:38.222Z,100066.22
2023-01-28T16:51:06.802Z,100060.81
2023-01-28T16:53:35.969Z,99992.53
2023-01-28T16:56:07.032Z,100009.31
2023-01-28T16:58:36.078Z,100016.06
2023-01-28T17:01:04.700Z,100016.44
2023-01-28T17:03:34.110Z,100080.31
2023-01-28T17:06:03.567Z,100016.38
2023-01-28T17:08:34.176Z,100021.28
2023-01-28T17:11:08.541Z,100019.97
2023-01-28T17:13:48.145Z,100071.88
2023-01-28T17:16:18.002Z,100071.88
2023-01-28T17:18:51.866Z,100076.81
2023-01-28T17:21:21.132Z,100083.09
2023-01-28T17:23:49.860Z,100090.31
2023-01-28T17:26:19.144Z,100084.97
2023-01-28T17:28:54.754Z,100081.41
2023-01-28T17:31:26.655Z,100079.66
2023-01-28T17:33:58.209Z,100053.38
2023-01-28T17:36:28.966Z,100086.44
2023-01-28T17:38:57.988Z,100089.03
2023-01-28T17:41:28.818Z,100094.34
2023-01-28T17:44:01.496Z,100092.59
2023-01-28T17:46:30.767Z,100094.22
2023-01-28T17:48:59.278Z,100096.06
2023-01-28T17:51:27.430Z,100047.63
2023-01-28T17:53:56.861Z,100092.66
2023-01-28T17:56:29.452Z,100106.41
2023-01-28T17:59:04.295Z,100110.84
2023-01-28T18:01:34.831Z,100060.50
2023-01-28T18:04:05.248Z,100110.59
2023-01-28T18:06:38.237Z,100063.44
2023-01-28T18:09:07.755Z,100037.16
2023-01-28T18:11:37.955Z,100095.00
2023-01-28T18:14:06.641Z,100096.72
2023-01-28T18:16:37.791Z,100067.28
2023-01-28T18:19:06.829Z,100085.59
2023-01-28T18:21:52.276Z,100096.19
2023-01-28T18:24:29.150Z,100071.41
2023-01-28T18:27:00.370Z,100093.00
2023-01-28T18:29:31.060Z,100059.88
2023-01-28T18:32:00.169Z,100045.59
2023-01-28T18:34:32.038Z,100090.91
2023-01-28T18:37:00.484Z,100043.28
2023-01-28T18:39:31.501Z,100096.72
2023-01-28T18:42:00.516Z,100088.34
2023-01-28T18:44:30.640Z,100069.53
2023-01-28T18:46:59.210Z,100111.59
2023-01-28T18:49:27.474Z,100102.09
2023-01-28T18:51:55.611Z,100064.03
2023-01-28T18:54:25.177Z,100106.59
2023-01-28T18:56:54.394Z,100100.78
2023-01-28T18:59:23.159Z,100065.34
2023-01-28T19:01:52.268Z,100101.72
2023-01-28T19:04:21.360Z,100111.84
2023-01-28T19:06:51.061Z,100095.41
2023-01-28T19:09:19.989Z,100080.63
2023-01-28T19:11:48.727Z,100109.34
2023-01-28T19:14:18.573Z,100066.88
2023-01-28T19:16:46.794Z,100115.25
2023-01-28T19:19:15.315Z,100072.09
2023-01-28T19:21:43.702Z,100111.25
2023-01-28T19:24:14.437Z,100125.63
2023-01-28T19:26:47.023Z,100123.00
2023-01-28T19:29:16.395Z,100134.34
2023-01-28T19:31:49.186Z,100117.56
2023-01-28T19:34:17.692Z,100119.50
2023-01-28T19:36:46.199Z,100126.09
2023-01-28T19:39:15.714Z,100120.41
2023-01-28T19:41:45.763Z,100107.59
2023-01-28T19:44:14.639Z,100067.69
2023-01-28T19:46:43.282Z,100118.72
2023-01-28T19:49:13.063Z,100118.66
2023-01-28T19:51:41.848Z,100132.94
2023-01-28T19:54:11.429Z,100006.59
2023-01-28T19:56:39.892Z,100135.63
2023-01-28T19:59:09.097Z,100128.50
2023-01-28T20:01:37.863Z,100060.72
2023-01-28T20:04:07.659Z,100088.34
2023-01-28T20:06:37.130Z,100117.78
2023-01-28T20:09:14.383Z,100102.81
2023-01-28T20:11:43.133Z,99967.00
2023-01-28T20:14:12.088Z,100047.00
2023-01-28T20:16:41.319Z,100128.00
2023-01-28T20:19:18.763Z,100105.03
2023-01-28T20:21:51.158Z,100124.31
2023-01-28T20:24:19.739Z,100126.28
2023-01-28T20:26:48.035Z,100106.88
2023-01-28T20:29:19.210Z,100143.28
2023-01-28T20:32:04.337Z,100130.50
2023-01-28T20:34:40.063Z,100134.59
2023-01-28T20:37:11.981Z,100125.06
2023-01-28T20:39:40.620Z,100123.16
2023-01-28T20:42:10.767Z,100130.28
2023-01-28T20:44:41.398Z,100106.69
2023-01-28T20:47:11.781Z,100128.53
2023-01-28T20:49:41.134Z,100123.47
2023-01-28T20:52:09.507Z,100083.38
2023-01-28T20:54:42.780Z,100122.44
2023-01-28T20:57:12.076Z,100115.31
2023-01-28T20:59:41.069Z,100123.41
2023-01-28T21:02:12.684Z,100105.75
2023-01-28T21:04:42.364Z,100129.97
2023-01-28T21:07:13.232Z,100136.75
2023-01-28T21:09:42.792Z,100144.59
2023-01-28T21:12:12.379Z,100129.97
2023-01-28T21:14:41.672Z,100144.81
2023-01-28T21:17:10.777Z,100133.13
2023-01-28T21:19:40.702Z,100133.84
2023-01-28T21:22:09.893Z,100138.91
2023-01-28T21:24:39.372Z,100118.69
2023-01-28T21:27:07.690Z,100136.53
2023-01-28T21:29:37.001Z,100098.09
2023-01-28T21:32:06.476Z,100075.03
2023-01-28T21:34:34.946Z,100134.00
2023-01-28T21:37:04.862Z,100130.88
2023-01-28T21:39:33.274Z,100137.41
2023-01-28T21:42:01.759Z,100141.59
2023-01-28T21:44:30.205Z,100110.97
2023-01-28T21:46:58.530Z,100079.72
2023-01-28T21:49:27.146Z,100113.88
2023-01-28T21:51:55.816Z,100136.09
2023-01-28T21:54:24.875Z,100129.28
2023-01-28T21:56:53.770Z,100126.16
2023-01-28T21:59:28.312Z,100122.59
2023-01-28T22:02:07.552Z,100125.50
2023-01-28T22:04:42.945Z,100140.13
2023-01-28T22:07:18.220Z,100138.94
2023-01-28T22:09:48.089Z,100136.59
2023-01-28T22:12:18.125Z,100101.75
2023-01-28T22:14:48.383Z,100132.53
2023-01-28T22:17:19.322Z,100087.28
2023-01-28T22:19:50.800Z,100139.53
2023-01-28T22:22:19.524Z,100066.47
2023-01-28T22:24:48.210Z,100070.78
2023-01-28T22:27:16.789Z,100135.16
2023-01-28T22:29:45.383Z,100137.84
2023-01-28T22:32:14.469Z,100117.28
2023-01-28T22:34:46.693Z,100126.81
2023-01-28T22:37:16.267Z,100138.06
2023-01-28T22:39:45.398Z,100082.00
2023-01-28T22:42:13.961Z,100069.34
2023-01-28T22:44:42.568Z,100095.84
2023-01-28T22:47:11.872Z,100083.72
2023-01-28T22:49:40.449Z,100139.88
2023-01-28T22:52:09.435Z,100151.19
2023-01-28T22:54:38.185Z,100146.78
2023-01-28T22:57:06.669Z,100086.78
2023-01-28T22:59:35.005Z,100080.75
2023-01-28T23:02:05.449Z,100088.31
2023-01-28T23:04:35.038Z,100152.28
2023-01-28T23:07:03.699Z,100093.06
2023-01-28T23:09:32.196Z,100146.91
2023-01-28T23:12:00.333Z,100147.94
2023-01-28T23:14:47.784Z,100151.34
2023-01-28T23:17:35.047Z,100148.59
2023-01-28T23:20:23.043Z,100065.75
2023-01-28T23:23:09.976Z,100150.59
2023-01-28T23:25:38.419Z,100138.75
2023-01-28T23:28:06.929Z,100155.34
2023-01-28T23:30:35.759Z,100157.06
2023-01-28T23:33:05.482Z,100136.69
2023-01-28T23:35:33.732Z,100165.63
2023-01-28T23:38:02.116Z,100093.47
2023-01-28T23:40:30.297Z,100160.22
2023-01-28T23:42:58.732Z,100091.31
2023-01-28T23:45:27.349Z,100131.69
2023-01-28T23:47:56.832Z,100141.53
2023-01-28T23:50:25.005Z,100149.81
2023-01-28T23:52:53.214Z,100136.84
2023-01-28T23:55:21.996Z,100079.16
2023-01-28T23:57:50.564Z,100066.75
